KJCT - Junction/Kimble Cnty, TX, US

Issued at 2331 UTC 05 Dec 2019
Updated at 0342 UTC 06 Dec 2019
Potential Impact None Slight Moderate High
Time0251Z 06/04Z 06/05Z 06/06Z 06/07Z 06/08Z 06/09Z 06/10Z 06/11Z 06/12Z 06/13Z 06/14Z 06/15Z 06/16Z>>
Type OBS PRVL PRVL PRVL PRVL PRVL PRVL PRVL PRVL PRVL PRVL PRVL PRVL PRVL
VIS 10 >6 >6 >6 >6 >6 >6 >6 >6 >6 >6 >6 >6 >6
CIG -- -- -- -- -- -- -- -- -- -- -- -- -- --
Cover CLR SCT SCT SCT SCT SCT SCT SCT SCT SCT SCT SCT SKC SKC
FltCat VFR VFR VFR VFR VFR VFR VFR VFR VFR VFR VFR VFR VFR VFR
WX -- -- -- -- -- -- -- -- -- -- -- -- -- --
WDir 210 VRB VRB VRB VRB VRB VRB VRB VRB VRB VRB VRB 360 360
WSpd 7 4 4 4 4 4 4 4 4 4 4 4 11 11
WGst -- -- -- -- -- -- -- -- -- -- -- -- 15 15
Raw TAF
KJCT 052331Z 0600/0624 VRB04KT P6SM SCT250
  FM061500 36011G15KT P6SM SKC
  FM062000 36009KT P6SM SKC


Raw METAR
KJCT 060251Z AUTO 21007KT 10SM CLR 19/09 A3002 RMK AO2 SLP141 T01890089 53024 PWINO
KJCT 060151Z AUTO 20003KT 10SM CLR 19/08 A2999 RMK AO2 SLP133 T01940083 PWINO
KJCT 060051Z AUTO 19007KT 10SM CLR 21/08 A2997 RMK AO2 SLP123 T02110083 PWINO

METAR Board
Radar Display
Forecast Discussion
For situational awareness. Not to be used for flight planning purposes.